Time;durP1;ratioP1;P1;durP2;ratioP2;P2;SDS_P1;SDS_P2;PMS_P1;PMS_P2;Temp;Humidity;BMP_temperature;BMP_pressure;BME280_temperature;BME280_humidity;BME280_pressure;Samples;Min_cycle;Max_cycle;Signal;HPM_P1;HPM_P2
2022/08/09 00:02:05;;;;;;;4.03;3.30;;;;;;;17.02;100.00;102791.47;5074084;28;20035;-71
2022/08/09 00:04:31;;;;;;;4.47;2.95;;;;;;;17.01;100.00;102787.03;5073954;28;20031;-71
2022/08/09 00:06:56;;;;;;;6.43;3.53;;;;;;;16.97;100.00;102786.06;5073998;28;20487;-71
2022/08/09 00:09:22;;;;;;;4.13;3.10;;;;;;;16.97;100.00;102790.47;5073730;28;20047;-71
2022/08/09 00:11:47;;;;;;;4.18;3.47;;;;;;;16.90;100.00;102788.56;5073840;28;20024;-71
2022/08/09 00:14:13;;;;;;;4.93;3.25;;;;;;;16.89;100.00;102777.03;5073795;28;20064;-72
2022/08/09 00:16:39;;;;;;;5.45;3.88;;;;;;;16.85;100.00;102780.47;5073896;28;20024;-72
2022/08/09 00:19:05;;;;;;;6.47;4.07;;;;;;;16.81;100.00;102783.94;5073620;28;20021;-71
2022/08/09 00:21:30;;;;;;;4.82;3.60;;;;;;;16.83;100.00;102782.19;5073671;28;20029;-71
2022/08/09 00:23:57;;;;;;;4.28;3.65;;;;;;;16.82;100.00;102781.28;5073510;28;20525;-71
2022/08/09 00:26:26;;;;;;;8.77;3.90;;;;;;;16.80;100.00;102776.81;5091379;28;20020;-71
2022/08/09 00:28:52;;;;;;;7.40;3.60;;;;;;;16.82;100.00;102780.38;5092474;28;20023;-72
2022/08/09 00:31:18;;;;;;;8.50;5.07;;;;;;;16.82;100.00;102772.41;5092688;28;20360;-70
2022/08/09 00:33:43;;;;;;;9.15;3.83;;;;;;;16.80;100.00;102777.69;5093684;28;20028;-71
2022/08/09 00:36:08;;;;;;;9.93;3.53;;;;;;;16.83;100.00;102776.88;5093638;28;20035;-72
2022/08/09 00:38:34;;;;;;;6.63;3.83;;;;;;;16.77;100.00;102776.75;5093525;28;20020;-71
2022/08/09 00:40:59;;;;;;;4.63;3.40;;;;;;;16.75;100.00;102779.34;5093457;28;20032;-72
2022/08/09 00:43:25;;;;;;;6.28;3.50;;;;;;;16.69;100.00;102768.59;5093547;28;20028;-72
2022/08/09 00:45:50;;;;;;;7.45;3.83;;;;;;;16.71;100.00;102782.81;5093453;28;20353;-71
2022/08/09 00:48:16;;;;;;;4.30;3.55;;;;;;;16.67;100.00;102788.91;5093266;28;20028;-71
2022/08/09 00:50:41;;;;;;;4.55;3.80;;;;;;;16.66;100.00;102784.47;5093401;28;20459;-71
2022/08/09 00:53:09;;;;;;;4.38;3.72;;;;;;;16.64;100.00;102781.78;5092996;28;20035;-71
2022/08/09 00:55:34;;;;;;;4.60;3.45;;;;;;;16.60;100.00;102774.59;5081747;28;20405;-69
2022/08/09 00:57:59;;;;;;;6.53;3.92;;;;;;;16.59;100.00;102783.44;5073063;28;20024;-72
2022/08/09 01:00:26;;;;;;;7.97;3.47;;;;;;;16.61;100.00;102786.13;5073131;28;20024;-72
2022/08/09 01:03:14;;;;;;;5.00;3.70;;;;;;;16.58;100.00;102780.75;5073120;28;20021;-71
2022/08/09 01:05:58;;;;;;;7.47;4.10;;;;;;;16.59;100.00;102782.53;5072864;28;20032;-71
2022/08/09 01:08:54;;;;;;;11.75;3.85;;;;;;;16.46;100.00;102782.25;5071979;28;20139;-72
2022/08/09 01:11:38;;;;;;;7.00;3.83;;;;;;;16.46;100.00;102784.91;5073118;28;20099;-72
2022/08/09 01:14:10;;;;;;;5.90;4.15;;;;;;;16.47;100.00;102788.47;5073101;28;20039;-72
2022/08/09 01:16:40;;;;;;;5.18;3.65;;;;;;;16.54;100.00;102792.19;5073085;28;20107;-73
2022/08/09 01:19:26;;;;;;;7.32;4.22;;;;;;;16.54;100.00;102789.53;5072988;28;20066;-73
2022/08/09 01:22:24;;;;;;;5.90;3.90;;;;;;;16.52;100.00;102782.41;5073152;28;20033;-72
2022/08/09 01:24:55;;;;;;;8.98;3.88;;;;;;;16.49;100.00;102782.34;5077994;28;20032;-72
2022/08/09 01:27:23;;;;;;;8.20;4.13;;;;;;;16.47;100.00;102775.19;5092992;28;20024;-72
2022/08/09 01:29:58;;;;;;;5.90;3.67;;;;;;;16.48;100.00;102775.22;5093133;28;20491;-72
2022/08/09 01:32:33;;;;;;;5.28;4.00;;;;;;;16.46;100.00;102782.25;5091883;28;20027;-73
2022/08/09 01:35:02;;;;;;;6.13;3.47;;;;;;;16.48;100.00;102785.84;5092963;28;20468;-71
2022/08/09 01:37:28;;;;;;;7.53;4.38;;;;;;;16.49;100.00;102787.66;5092991;28;20165;-72
2022/08/09 01:39:57;;;;;;;10.13;4.25;;;;;;;16.46;100.00;102787.56;5092870;28;20509;-72
2022/08/09 01:42:23;;;;;;;10.30;5.18;;;;;;;16.46;100.00;102784.91;5092940;28;20024;-72
2022/08/09 01:44:50;;;;;;;6.15;4.40;;;;;;;16.40;100.00;102779.47;5093060;28;20031;-71
2022/08/09 01:47:17;;;;;;;6.65;4.25;;;;;;;16.37;100.00;102775.84;5092793;28;20085;-72
2022/08/09 01:49:46;;;;;;;9.75;4.82;;;;;;;16.40;100.00;102776.81;5092865;28;20763;-71
2022/08/09 01:52:14;;;;;;;11.02;4.70;;;;;;;16.37;100.00;102781.16;5092740;28;20027;-72
2022/08/09 01:54:44;;;;;;;7.60;4.20;;;;;;;16.38;100.00;102778.53;5089016;28;20045;-71
2022/08/09 01:57:18;;;;;;;5.57;4.28;;;;;;;16.33;100.00;102780.16;5072604;28;20130;-72
2022/08/09 01:59:46;;;;;;;8.77;4.40;;;;;;;16.28;100.00;102781.84;5072579;28;20033;-71
2022/08/09 02:02:14;;;;;;;5.10;4.13;;;;;;;16.22;100.00;102781.69;5072511;28;20149;-71
2022/08/09 02:04:41;;;;;;;9.90;4.78;;;;;;;16.22;100.00;102786.97;5073711;28;20070;-71
2022/08/09 02:07:16;;;;;;;10.63;4.97;;;;;;;16.18;100.00;102778.94;5076400;28;20021;-71
2022/08/09 02:09:47;;;;;;;8.40;5.22;;;;;;;16.14;100.00;102787.72;5076142;28;20379;-71
2022/08/09 02:12:17;;;;;;;5.82;4.45;;;;;;;16.10;100.00;102785.84;5076283;28;20044;-70
2022/08/09 02:14:44;;;;;;;12.38;5.28;;;;;;;16.11;100.00;102784.94;5074837;28;20078;-72
2022/08/09 02:17:11;;;;;;;7.93;5.00;;;;;;;16.07;100.00;102792.81;5076028;28;20028;-71
2022/08/09 02:19:37;;;;;;;8.80;4.88;;;;;;;16.07;100.00;102782.19;5075922;28;20031;-72
2022/08/09 02:22:09;;;;;;;7.00;4.95;;;;;;;16.02;100.00;102784.75;5075969;28;20029;-72
2022/08/09 02:24:36;;;;;;;11.73;5.43;;;;;;;16.05;100.00;102779.50;5078790;28;20020;-71
2022/08/09 02:27:08;;;;;;;12.20;5.40;;;;;;;16.09;100.00;102780.47;5094884;28;20495;-71
2022/08/09 02:29:39;;;;;;;7.78;5.40;;;;;;;16.01;100.00;102778.53;5096124;28;20020;-70
2022/08/09 02:32:09;;;;;;;8.75;5.15;;;;;;;15.93;100.00;102779.19;5096082;28;20047;-71
2022/08/09 02:34:36;;;;;;;8.45;5.22;;;;;;;15.93;100.00;102779.19;5096014;28;20438;-71
2022/08/09 02:37:08;;;;;;;8.57;6.47;;;;;;;15.89;100.00;102777.31;5095929;28;20020;-72
2022/08/09 02:39:37;;;;;;;7.97;5.50;;;;;;;15.85;100.00;102763.94;5095852;28;20047;-72
2022/08/09 02:42:06;;;;;;;9.32;6.00;;;;;;;15.85;100.00;102774.56;5095846;28;20361;-72
2022/08/09 02:44:39;;;;;;;12.45;5.78;;;;;;;15.82;100.00;102771.84;5095915;28;20461;-72
2022/08/09 02:47:12;;;;;;;6.57;5.68;;;;;;;15.90;100.00;102766.75;5095808;28;20425;-71
2022/08/09 02:49:59;;;;;;;9.35;6.13;;;;;;;15.87;100.00;102773.72;5095690;28;20023;-72
2022/08/09 02:52:39;;;;;;;11.88;5.88;;;;;;;15.82;100.00;102770.97;5094689;28;20089;-72
2022/08/09 02:55:07;;;;;;;11.65;6.68;;;;;;;15.82;100.00;102765.66;5088138;28;20040;-72
2022/08/09 02:57:33;;;;;;;9.20;6.68;;;;;;;15.81;100.00;102761.19;5075149;28;20029;-72
2022/08/09 03:00:00;;;;;;;10.38;6.28;;;;;;;15.82;100.00;102763.88;5075310;28;20028;-71
2022/08/09 03:02:27;;;;;;;8.68;6.55;;;;;;;15.77;100.00;102764.59;5075238;28;20059;-71
2022/08/09 03:04:53;;;;;;;10.93;6.53;;;;;;;15.75;100.00;102758.31;5075189;28;20039;-72
2022/08/09 03:07:20;;;;;;;13.18;7.20;;;;;;;15.78;100.00;102758.44;5075100;28;20169;-72
2022/08/09 03:09:48;;;;;;;12.48;7.32;;;;;;;15.75;100.00;102756.59;5075120;28;20392;-72
2022/08/09 03:12:14;;;;;;;10.93;6.10;;;;;;;15.75;100.00;102761.91;5075110;28;20024;-71
2022/08/09 03:14:41;;;;;;;11.80;6.25;;;;;;;15.75;100.00;102761.91;5073811;28;20130;-71
2022/08/09 03:17:07;;;;;;;12.23;5.70;;;;;;;15.76;100.00;102761.06;5074639;28;20098;-72
2022/08/09 03:19:34;;;;;;;16.65;6.68;;;;;;;15.78;100.00;102753.13;5075029;28;20063;-72
2022/08/09 03:22:00;;;;;;;9.20;6.45;;;;;;;15.71;100.00;102760.03;5073725;28;20470;-72
2022/08/09 03:24:26;;;;;;;12.40;6.20;;;;;;;15.71;100.00;102757.38;5076239;28;20021;-71
2022/08/09 03:26:52;;;;;;;12.82;6.13;;;;;;;15.67;100.00;102758.16;5093842;28;20495;-71
2022/08/09 03:29:19;;;;;;;13.68;6.15;;;;;;;15.65;100.00;102765.16;5094925;28;20129;-72
2022/08/09 03:31:44;;;;;;;10.93;6.13;;;;;;;15.61;100.00;102765.94;5094891;28;20038;-72
2022/08/09 03:34:11;;;;;;;8.13;6.30;;;;;;;15.57;100.00;102769.38;5093630;28;20106;-72
2022/08/09 03:36:36;;;;;;;14.68;7.63;;;;;;;15.52;100.00;102772.78;5094838;28;20051;-72
2022/08/09 03:39:03;;;;;;;9.23;6.50;;;;;;;15.52;100.00;102778.09;5094615;28;20055;-73
2022/08/09 03:41:29;;;;;;;11.98;7.15;;;;;;;15.57;100.00;102779.97;5094621;28;20024;-72
2022/08/09 03:43:54;;;;;;;10.13;7.35;;;;;;;15.54;100.00;102779.91;5094537;28;20360;-71
2022/08/09 03:46:19;;;;;;;12.32;6.80;;;;;;;15.49;100.00;102788.66;5094766;28;20044;-72
2022/08/09 03:48:48;;;;;;;8.63;6.18;;;;;;;15.51;100.00;102778.94;5094474;28;20415;-71
2022/08/09 03:51:14;;;;;;;8.23;7.03;;;;;;;15.46;100.00;102785.91;5094435;28;20378;-72
2022/08/09 03:53:41;;;;;;;8.32;6.63;;;;;;;15.41;100.00;102782.22;5094510;28;20034;-72
2022/08/09 03:56:07;;;;;;;11.93;6.97;;;;;;;15.41;100.00;102778.66;5076998;28;20492;-73
2022/08/09 03:58:32;;;;;;;15.05;7.22;;;;;;;15.45;100.00;102788.50;5073897;28;20024;-73
2022/08/09 04:00:58;;;;;;;7.28;6.22;;;;;;;15.44;100.00;102795.56;5074204;28;20086;-70
2022/08/09 04:03:25;;;;;;;13.98;7.03;;;;;;;15.44;100.00;102797.34;5073902;28;20024;-72
2022/08/09 04:05:51;;;;;;;9.38;7.47;;;;;;;15.41;100.00;102799.88;5073882;28;20021;-71
2022/08/09 04:08:16;;;;;;;12.32;6.75;;;;;;;15.38;100.00;102800.69;5073892;28;20073;-72
2022/08/09 04:10:41;;;;;;;9.70;6.55;;;;;;;15.37;100.00;102806.88;5073848;28;20059;-71
2022/08/09 04:13:10;;;;;;;10.15;6.30;;;;;;;15.39;100.00;102810.47;5073821;28;20078;-72
2022/08/09 04:15:36;;;;;;;10.35;7.00;;;;;;;15.34;100.00;102813.00;5073803;28;20016;-72
2022/08/09 04:18:03;;;;;;;9.50;7.25;;;;;;;15.37;100.00;102808.59;5073750;28;20077;-71
2022/08/09 04:20:28;;;;;;;10.20;7.18;;;;;;;15.34;100.00;102817.38;5073699;28;20469;-71
2022/08/09 04:22:54;;;;;;;17.08;8.27;;;;;;;15.30;100.00;102815.50;5072446;28;20027;-71
2022/08/09 04:25:19;;;;;;;11.95;6.70;;;;;;;15.30;100.00;102818.16;5082595;28;20083;-70
2022/08/09 04:27:45;;;;;;;13.02;7.07;;;;;;;15.31;100.00;102812.00;5092933;28;20097;-71
2022/08/09 04:30:13;;;;;;;9.25;7.10;;;;;;;15.30;100.00;102823.44;5093768;28;20059;-71
2022/08/09 04:32:39;;;;;;;8.68;7.00;;;;;;;15.28;100.00;102815.47;5093704;28;20116;-73
2022/08/09 04:35:06;;;;;;;14.95;7.47;;;;;;;15.28;100.00;102817.22;5093804;28;20498;-72
2022/08/09 04:37:32;;;;;;;14.45;6.90;;;;;;;15.32;100.00;102822.66;5093632;28;20024;-72
2022/08/09 04:39:57;;;;;;;10.18;7.00;;;;;;;15.32;100.00;102817.34;5093590;28;20031;-71
2022/08/09 04:42:26;;;;;;;12.90;6.85;;;;;;;15.38;100.00;102821.91;5093504;28;20034;-72
2022/08/09 04:44:51;;;;;;;13.10;6.35;;;;;;;15.40;100.00;102829.94;5093771;28;20020;-72
2022/08/09 04:47:16;;;;;;;12.98;6.72;;;;;;;15.37;100.00;102824.53;5093577;28;20038;-71
2022/08/09 04:49:42;;;;;;;10.20;6.43;;;;;;;15.39;100.00;102830.78;5093570;28;20027;-72
2022/08/09 04:52:07;;;;;;;7.70;6.50;;;;;;;15.37;100.00;102824.53;5093518;28;20016;-72
2022/08/09 04:54:32;;;;;;;12.13;7.22;;;;;;;15.38;100.00;102821.91;5090470;28;20052;-71
2022/08/09 04:56:58;;;;;;;11.80;7.10;;;;;;;15.38;100.00;102821.91;5073201;28;20029;-71
2022/08/09 04:59:23;;;;;;;9.25;6.90;;;;;;;15.37;100.00;102825.44;5073062;28;20387;-72
2022/08/09 05:01:49;;;;;;;13.55;7.10;;;;;;;15.32;100.00;102827.94;5071885;28;20468;-72
2022/08/09 05:04:14;;;;;;;9.40;6.53;;;;;;;15.31;100.00;102823.53;5073162;28;20141;-71
2022/08/09 05:06:40;;;;;;;11.35;7.03;;;;;;;15.29;100.00;102826.97;5073348;28;20021;-72
2022/08/09 05:09:05;;;;;;;14.55;7.32;;;;;;;15.30;100.00;102824.38;5073116;28;20036;-72
2022/08/09 05:11:30;;;;;;;9.52;7.10;;;;;;;15.33;100.00;102831.53;5073001;28;20020;-72
2022/08/09 05:13:56;;;;;;;11.27;7.32;;;;;;;15.40;100.00;102835.25;5073146;28;20093;-71
2022/08/09 05:16:21;;;;;;;9.88;7.63;;;;;;;15.48;100.00;102836.38;5073201;28;20024;-70
2022/08/09 05:18:47;;;;;;;11.02;6.70;;;;;;;15.56;100.00;102837.47;5073154;28;20082;-72
2022/08/09 05:21:12;;;;;;;9.73;7.00;;;;;;;15.63;100.00;102827.94;5072998;28;20443;-72
2022/08/09 05:23:38;;;;;;;13.70;7.18;;;;;;;15.62;100.00;102832.31;5073047;28;20024;-71
2022/08/09 05:26:03;;;;;;;10.73;6.82;;;;;;;15.60;100.00;102831.41;5088000;28;20463;-71
2022/08/09 05:28:29;;;;;;;18.15;7.82;;;;;;;15.63;100.00;102826.16;5093121;28;20027;-72
2022/08/09 05:30:54;;;;;;;18.80;7.38;;;;;;;15.64;100.00;102829.69;5093097;28;20069;-72
2022/08/09 05:33:20;;;;;;;9.77;7.80;;;;;;;15.65;100.00;102831.50;5093057;28;20177;-72
2022/08/09 05:35:45;;;;;;;12.50;7.45;;;;;;;15.71;100.00;102837.00;5093005;28;20028;-72
2022/08/09 05:38:10;;;;;;;14.40;7.97;;;;;;;15.77;100.00;102831.84;5093321;28;20024;-72
2022/08/09 05:40:36;;;;;;;14.25;7.28;;;;;;;15.81;100.00;102828.44;5097057;28;20067;-72
2022/08/09 05:43:01;;;;;;;14.82;8.00;;;;;;;15.90;100.00;102837.50;5096951;28;20028;-72
2022/08/09 05:45:28;;;;;;;14.65;8.07;;;;;;;15.91;100.00;102836.66;5095555;28;20357;-73
2022/08/09 05:47:53;;;;;;;14.27;7.38;;;;;;;15.98;100.00;102838.63;5096869;28;20020;-71
2022/08/09 05:50:22;;;;;;;10.90;7.80;;;;;;;16.01;100.00;102849.34;5096955;28;20077;-72
2022/08/09 05:52:48;;;;;;;10.43;7.28;;;;;;;16.04;100.00;102846.75;5096932;28;20020;-70
2022/08/09 05:55:13;;;;;;;11.98;7.72;;;;;;;16.11;100.00;102848.69;5088089;28;20055;-71
2022/08/09 05:57:39;;;;;;;14.52;7.88;;;;;;;16.15;100.00;102855.88;5076379;28;20063;-72
2022/08/09 06:00:06;;;;;;;12.50;7.70;;;;;;;16.23;100.00;102855.19;5076393;28;20422;-71
2022/08/09 06:02:32;;;;;;;13.48;8.13;;;;;;;16.21;100.00;102859.56;5076345;28;20028;-72
2022/08/09 06:04:58;;;;;;;12.85;8.32;;;;;;;16.28;100.00;102857.09;5076284;28;20031;-72
2022/08/09 06:07:23;;;;;;;13.93;7.95;;;;;;;16.32;100.00;102872.25;5076266;28;20024;-71
2022/08/09 06:09:49;;;;;;;13.23;7.50;;;;;;;16.44;100.00;102866.38;5076268;28;20020;-72
2022/08/09 06:12:14;;;;;;;12.55;7.40;;;;;;;16.52;100.00;102866.53;5076125;28;20032;-72
2022/08/09 06:14:39;;;;;;;14.43;7.35;;;;;;;16.60;100.00;102867.59;5076216;28;20033;-72
2022/08/09 06:17:05;;;;;;;14.75;7.30;;;;;;;16.61;100.00;102865.88;5076201;28;20029;-72
2022/08/09 06:19:30;;;;;;;10.57;7.65;;;;;;;16.70;100.00;102871.41;5076033;28;20091;-71
2022/08/09 06:21:56;;;;;;;13.52;8.35;;;;;;;16.78;100.00;102879.53;5075958;28;20384;-71
2022/08/09 06:24:21;;;;;;;10.93;7.22;;;;;;;16.85;100.00;102873.53;5075480;28;20025;-72
2022/08/09 06:26:46;;;;;;;11.63;8.48;;;;;;;16.89;100.00;102872.78;5096144;28;20051;-72
2022/08/09 06:29:12;;;;;;;10.98;7.40;;;;;;;16.95;100.00;102875.56;5094813;28;20024;-72
2022/08/09 06:31:38;;;;;;;13.00;7.32;;;;;;;17.00;100.00;102881.00;5096230;28;20115;-70
2022/08/09 06:34:03;;;;;;;13.43;7.35;;;;;;;17.02;100.00;102879.25;5096011;28;20468;-72
2022/08/09 06:36:29;;;;;;;12.30;7.70;;;;;;;17.00;100.00;102881.00;5095990;28;20032;-71
2022/08/09 06:38:54;;;;;;;11.00;6.55;;;;;;;16.99;100.00;102879.19;5095938;28;20027;-72
2022/08/09 06:41:19;;;;;;;15.82;6.57;;;;;;;17.09;100.00;102885.59;5095819;28;20027;-72
2022/08/09 06:43:46;;;;;;;8.07;6.40;;;;;;;17.16;100.00;102887.56;5095915;28;20361;-72
2022/08/09 06:46:11;;;;;;;14.60;6.55;;;;;;;17.26;100.00;102891.31;5095835;28;20034;-72
2022/08/09 06:48:37;;;;;;;10.50;5.78;;;;;;;17.35;100.00;102894.19;5095816;28;20024;-71
2022/08/09 06:51:04;;;;;;;10.25;6.00;;;;;;;17.38;100.00;102888.91;5095250;28;20020;-72
2022/08/09 06:53:30;;;;;;;10.68;5.72;;;;;;;17.43;100.00;102887.25;5095860;28;20032;-72
2022/08/09 06:55:55;;;;;;;11.85;6.22;;;;;;;17.44;100.00;102894.34;5080038;28;20102;-72
2022/08/09 06:58:20;;;;;;;8.63;5.60;;;;;;;17.48;100.00;102895.31;5075429;28;20100;-71
2022/08/09 07:00:46;;;;;;;12.25;5.80;;;;;;;17.56;100.00;102891.06;5075547;28;20024;-72
2022/08/09 07:03:11;;;;;;;10.40;5.50;;;;;;;17.58;100.00;102902.66;5075428;28;20067;-73
2022/08/09 07:05:36;;;;;;;8.93;5.03;;;;;;;17.65;100.00;102887.69;5075484;28;20028;-71
2022/08/09 07:08:02;;;;;;;8.77;5.38;;;;;;;17.69;100.00;102890.44;5075311;28;20028;-73
2022/08/09 07:10:28;;;;;;;10.43;5.47;;;;;;;17.78;100.00;102897.69;5075244;28;20024;-73
2022/08/09 07:12:53;;;;;;;7.82;4.70;;;;;;;17.75;100.00;102907.41;5074033;28;20521;-72
2022/08/09 07:15:19;;;;;;;7.35;4.35;;;;;;;17.80;100.00;102905.75;5075041;28;20033;-72
2022/08/09 07:17:44;;;;;;;5.20;3.97;;;;;;;17.91;100.00;102903.28;5074891;28;20020;-71
2022/08/09 07:20:10;;;;;;;8.00;3.85;;;;;;;18.02;100.00;102904.41;5074915;28;20041;-73
2022/08/09 07:22:35;;;;;;;8.60;3.78;;;;;;;18.14;100.00;102909.97;5074782;28;20029;-72
2022/08/09 07:25:02;;;;;;;5.22;3.10;;;;;;;18.21;100.00;102910.97;5081195;28;20024;-70
2022/08/09 07:27:27;;;;;;;10.07;4.53;;;;;;;18.25;100.00;102910.16;5094924;28;20468;-71
2022/08/09 07:29:54;;;;;;;6.05;3.30;;;;;;;18.30;100.00;102899.56;5095147;28;20027;-71
2022/08/09 07:32:20;;;;;;;6.63;2.90;;;;;;;18.29;100.00;102890.69;5094940;28;20032;-71
2022/08/09 07:34:45;;;;;;;4.38;2.78;;;;;;;18.36;100.00;102889.00;5094818;28;20024;-72
2022/08/09 07:37:11;;;;;;;3.90;3.10;;;;;;;18.40;100.00;102888.19;5094801;28;20103;-69
2022/08/09 07:39:36;;;;;;;5.28;2.70;;;;;;;18.44;100.00;102892.72;5094484;28;20024;-72
2022/08/09 07:42:02;;;;;;;8.27;3.20;;;;;;;18.48;100.00;102888.34;5094637;28;20024;-72
2022/08/09 07:44:27;;;;;;;6.28;3.20;;;;;;;18.52;100.00;102885.72;5094548;28;20446;-72
2022/08/09 07:46:53;;;;;;;4.95;2.90;;;;;;;18.61;100.00;102886.75;5094485;28;20039;-71
2022/08/09 07:49:18;;;;;;;6.40;2.55;;;;;;;18.68;100.00;102883.31;5094538;28;20028;-72
2022/08/09 07:51:43;;;;;;;4.25;2.22;;;;;;;18.77;100.00;102891.44;5094437;28;20055;-72
2022/08/09 07:54:09;;;;;;;6.30;2.67;;;;;;;18.86;100.00;102891.59;5094079;28;20059;-70
2022/08/09 07:56:36;;;;;;;4.20;2.20;;;;;;;18.96;100.00;102897.09;5074679;28;20055;-71
2022/08/09 07:59:01;;;;;;;4.63;2.03;;;;;;;19.03;100.00;102893.63;5073948;28;20031;-71
2022/08/09 08:01:27;;;;;;;3.30;1.80;;;;;;;19.11;100.00;102893.75;5073498;28;20029;-71
2022/08/09 08:03:52;;;;;;;5.80;1.77;;;;;;;19.16;100.00;102890.25;5073545;28;20031;-70
2022/08/09 08:06:17;;;;;;;3.47;1.90;;;;;;;19.26;100.00;102885.97;5074070;28;20535;-70
2022/08/09 08:08:43;;;;;;;4.57;1.90;;;;;;;19.32;100.00;102894.03;5073698;28;20099;-71
2022/08/09 08:11:08;;;;;;;3.40;1.90;;;;;;;19.40;100.00;102902.16;5073873;28;20380;-71
2022/08/09 08:13:33;;;;;;;2.85;1.58;;;;;;;19.51;100.00;102900.50;5073837;28;20028;-72
2022/08/09 08:15:59;;;;;;;2.65;1.80;;;;;;;19.59;100.00;102905.03;5073729;28;20054;-71
2022/08/09 08:18:24;;;;;;;4.55;1.55;;;;;;;19.68;100.00;102903.38;5073819;28;20464;-71
2022/08/09 08:20:49;;;;;;;6.35;1.90;;;;;;;19.77;100.00;102901.69;5073566;28;20490;-71
2022/08/09 08:23:17;;;;;;;1.98;1.50;;;;;;;19.91;100.00;102901.88;5073542;28;20021;-71
2022/08/09 08:25:47;;;;;;;2.65;1.92;;;;;;;20.00;100.00;102904.66;5085697;28;20066;-72
2022/08/09 08:28:14;;;;;;;3.47;2.05;;;;;;;20.13;100.00;102903.91;5093999;28;20031;-70
2022/08/09 08:30:39;;;;;;;2.95;1.50;;;;;;;20.16;100.00;102893.22;5093740;28;20031;-72
2022/08/09 08:33:04;;;;;;;2.53;1.50;;;;;;;20.26;100.00;102893.31;5093752;28;20019;-72
2022/08/09 08:35:30;;;;;;;3.40;1.50;;;;;;;20.36;100.00;102893.41;5093723;28;20028;-71
2022/08/09 08:37:55;;;;;;;4.85;1.50;;;;;;;20.42;100.00;102899.69;5093683;28;20035;-71
2022/08/09 08:40:20;;;;;;;3.00;1.10;;;;;;;20.38;100.00;102893.41;5093556;28;20478;-71
2022/08/09 08:42:46;;;;;;;2.15;1.40;;;;;;;20.51;100.00;102906.00;5093684;28;20016;-73
2022/08/09 08:45:12;;;;;;;9.15;1.40;;;;;;;20.64;100.00;102895.41;5093639;28;20027;-72
2022/08/09 08:47:39;;;;;;;3.10;1.40;;;;;;;20.71;100.00;102892.81;5092603;28;20020;-71
2022/08/09 08:50:05;;;;;;;2.70;1.30;;;;;;;20.76;100.00;102892.84;5093425;28;20380;-72
2022/08/09 08:52:32;;;;;;;5.47;1.30;;;;;;;20.85;100.00;102900.94;5093417;28;20031;-71
2022/08/09 08:54:59;;;;;;;3.97;1.20;;;;;;;20.92;100.00;102903.63;5086874;28;20067;-71
2022/08/09 08:57:26;;;;;;;8.70;1.70;;;;;;;20.98;100.00;102895.66;5073161;28;20020;-71
2022/08/09 08:59:52;;;;;;;2.28;1.27;;;;;;;21.05;100.00;102908.19;5073165;28;20499;-71
2022/08/09 09:02:26;;;;;;;2.80;1.25;;;;;;;21.21;100.00;102907.38;5073256;28;20113;-71
2022/08/09 09:04:54;;;;;;;1.88;0.90;;;;;;;21.31;100.00;102899.38;5073181;28;20117;-71
2022/08/09 09:07:19;;;;;;;7.30;2.17;;;;;;;21.37;100.00;102905.66;5071919;28;20025;-71
2022/08/09 09:09:50;;;;;;;3.00;1.25;;;;;;;21.56;100.00;102911.16;5072934;28;20050;-73
2022/08/09 09:12:17;;;;;;;1.23;0.93;;;;;;;21.62;100.00;102910.25;5073201;28;20467;-71
2022/08/09 09:14:44;;;;;;;1.75;0.88;;;;;;;21.75;100.00;102917.47;5072503;28;20499;-71
2022/08/09 09:17:10;;;;;;;1.55;0.88;;;;;;;21.90;100.00;102916.59;5072975;28;20016;-71
2022/08/09 09:19:35;;;;;;;1.92;0.80;;;;;;;21.98;100.00;102913.94;5072904;28;20429;-70
2022/08/09 09:22:09;;;;;;;2.38;1.00;;;;;;;22.13;100.00;102922.00;5073043;28;20043;-71
2022/08/09 09:24:37;;;;;;;2.95;1.35;;;;;;;22.20;100.00;102910.38;5075618;28;20103;-72
2022/08/09 09:27:04;;;;;;;4.15;1.10;;;;;;;22.26;100.00;102908.59;5093254;28;20026;-72
2022/08/09 09:29:39;;;;;;;7.13;1.10;;;;;;;22.33;99.92;102910.44;5093060;28;20414;-71
2022/08/09 09:32:06;;;;;;;3.47;1.00;;;;;;;22.50;99.23;102907.75;5092964;28;20028;-70
2022/08/09 09:34:32;;;;;;;2.85;0.93;;;;;;;22.59;97.74;102912.25;5091721;28;20482;-72
2022/08/09 09:36:59;;;;;;;6.35;0.77;;;;;;;22.70;97.46;102902.38;5092928;28;20375;-71
2022/08/09 09:39:26;;;;;;;1.40;0.70;;;;;;;22.84;95.50;102907.72;5091690;28;20106;-70
2022/08/09 09:41:52;;;;;;;2.40;0.70;;;;;;;22.95;93.44;102907.69;5092963;28;20471;-71
2022/08/09 09:44:25;;;;;;;1.95;0.80;;;;;;;23.07;89.79;102916.63;5092921;28;20035;-72
2022/08/09 09:46:55;;;;;;;1.08;0.55;;;;;;;23.13;89.17;102917.53;5092795;28;20032;-72
2022/08/09 09:49:22;;;;;;;1.23;0.90;;;;;;;23.21;88.82;102915.69;5092849;28;20062;-72
2022/08/09 09:51:48;;;;;;;1.30;0.98;;;;;;;23.35;87.54;102918.38;5092855;28;20032;-70
2022/08/09 09:54:20;;;;;;;2.47;0.80;;;;;;;23.43;84.55;102913.84;5092468;28;20020;-71
2022/08/09 09:56:48;;;;;;;2.08;0.80;;;;;;;23.56;85.52;102917.34;5072460;28;20024;-71
2022/08/09 09:59:19;;;;;;;3.45;0.90;;;;;;;23.67;85.76;102909.25;5071217;28;20499;-70
2022/08/09 10:01:45;;;;;;;3.60;0.60;;;;;;;23.63;79.44;102910.16;5072472;28;20114;-71
2022/08/09 10:04:19;;;;;;;1.25;0.70;;;;;;;23.65;77.07;102905.69;5072457;28;20107;-72
2022/08/09 10:06:46;;;;;;;2.55;0.60;;;;;;;23.69;78.86;102912.84;5072500;28;20028;-72
2022/08/09 10:09:13;;;;;;;2.28;0.60;;;;;;;23.82;76.52;102905.56;5072424;28;20115;-72
2022/08/09 10:11:39;;;;;;;1.85;0.52;;;;;;;24.00;76.54;102912.69;5072519;28;20029;-71
2022/08/09 10:14:05;;;;;;;3.17;0.70;;;;;;;24.11;70.54;102897.34;5072564;28;20043;-71
2022/08/09 10:16:35;;;;;;;2.53;0.60;;;;;;;24.17;70.66;102905.38;5072352;28;20024;-71
2022/08/09 10:19:06;;;;;;;2.05;1.02;;;;;;;24.26;72.05;102893.66;5072416;28;20028;-72
2022/08/09 10:21:33;;;;;;;0.77;0.50;;;;;;;24.42;73.57;102891.72;5072245;28;20067;-73
2022/08/09 10:24:02;;;;;;;3.25;0.90;;;;;;;24.46;71.44;102892.56;5072371;28;20032;-71
2022/08/09 10:26:29;;;;;;;3.42;0.73;;;;;;;24.67;73.29;102894.22;5092881;28;20020;-71
2022/08/09 10:28:56;;;;;;;0.88;0.57;;;;;;;24.85;71.15;102888.66;5096100;28;20024;-71
2022/08/09 10:31:21;;;;;;;1.88;0.82;;;;;;;24.98;72.09;102896.59;5096068;28;20508;-72
2022/08/09 10:33:47;;;;;;;2.13;0.50;;;;;;;25.14;68.23;102892.81;5095906;28;20024;-72
2022/08/09 10:36:14;;;;;;;1.60;0.60;;;;;;;25.11;67.39;102892.84;5096071;28;20024;-71
2022/08/09 10:38:42;;;;;;;1.02;0.60;;;;;;;25.18;66.92;102883.78;5095925;28;20493;-73
2022/08/09 10:41:07;;;;;;;0.77;0.30;;;;;;;25.15;66.98;102889.22;5095853;28;20020;-72
2022/08/09 10:43:34;;;;;;;2.80;1.15;;;;;;;25.36;69.05;102892.56;5096109;28;20085;-72
2022/08/09 10:46:38;;;;;;;3.28;0.95;;;;;;;25.25;71.51;102892.69;5095698;28;20111;-70
2022/08/09 10:49:23;;;;;;;1.58;0.90;;;;;;;25.55;67.15;102898.59;5088050;28;20043;-71
2022/08/09 10:52:01;;;;;;;1.02;0.60;;;;;;;25.64;66.99;102894.88;5095743;28;20016;-72
2022/08/09 10:54:27;;;;;;;0.95;0.50;;;;;;;25.81;65.01;102895.53;5093438;28;20052;-72
2022/08/09 10:57:12;;;;;;;0.80;0.47;;;;;;;25.88;63.66;102896.31;5074156;28;20028;-71
2022/08/09 10:59:38;;;;;;;1.88;0.73;;;;;;;26.04;63.85;102884.41;5075069;28;20028;-72
2022/08/09 11:02:12;;;;;;;4.63;0.70;;;;;;;26.18;63.42;102889.59;5075042;28;20066;-72
2022/08/09 11:04:37;;;;;;;2.92;0.52;;;;;;;25.97;63.62;102880.00;5073940;28;20086;-71
2022/08/09 11:07:03;;;;;;;1.75;0.70;;;;;;;26.20;64.66;102887.75;5075259;28;20024;-72
2022/08/09 11:09:37;;;;;;;2.20;0.80;;;;;;;26.23;63.21;102876.03;5073884;28;20491;-70
2022/08/09 11:12:13;;;;;;;1.30;0.80;;;;;;;26.30;62.60;102876.81;5075035;28;20348;-72
2022/08/09 11:14:40;;;;;;;0.45;0.45;;;;;;;26.51;65.78;102881.84;5075087;28;20028;-71
2022/08/09 11:17:12;;;;;;;6.93;1.58;;;;;;;26.65;60.13;102878.88;5074960;28;20024;-71
2022/08/09 11:19:55;;;;;;;0.90;0.60;;;;;;;26.72;61.15;102880.59;5074870;28;20028;-72